createdAt,value
2019-05-30T00:00:46.520Z,20.42
2019-05-30T00:03:18.849Z,20.37
2019-05-30T00:05:52.215Z,20.30
2019-05-30T00:08:24.344Z,20.27
2019-05-30T00:10:56.578Z,20.22
2019-05-30T00:13:28.687Z,20.13
2019-05-30T00:16:02.962Z,20.07
2019-05-30T00:18:35.388Z,20.09
2019-05-30T00:21:07.684Z,20.03
2019-05-30T00:23:39.931Z,20.03
2019-05-30T00:26:12.108Z,20.05
2019-05-30T00:28:44.304Z,19.99
2019-05-30T00:31:16.597Z,19.94
2019-05-30T00:33:48.744Z,19.89
2019-05-30T00:36:21.009Z,19.84
2019-05-30T00:38:53.250Z,19.78
2019-05-30T00:41:25.468Z,19.78
2019-05-30T00:43:57.912Z,19.69
2019-05-30T00:46:30.202Z,19.70
2019-05-30T00:49:02.577Z,19.63
2019-05-30T00:51:35.954Z,19.60
2019-05-30T00:54:08.173Z,19.53
2019-05-30T00:56:40.403Z,19.54
2019-05-30T00:59:12.652Z,19.65
2019-05-30T01:01:44.905Z,19.59
2019-05-30T01:04:18.161Z,19.55
2019-05-30T01:06:50.334Z,19.50
2019-05-30T01:09:22.563Z,19.50
2019-05-30T01:11:54.789Z,19.54
2019-05-30T01:14:26.993Z,19.58
2019-05-30T01:16:59.207Z,19.54
2019-05-30T01:19:31.347Z,19.56
2019-05-30T01:22:03.744Z,19.57
2019-05-30T01:24:35.963Z,19.58
2019-05-30T01:27:08.165Z,19.60
2019-05-30T01:29:40.351Z,19.62
2019-05-30T01:32:30.831Z,19.61
2019-05-30T01:35:03.843Z,19.55
2019-05-30T01:37:36.187Z,19.53
2019-05-30T01:40:09.007Z,19.53
2019-05-30T01:42:41.318Z,19.54
2019-05-30T01:45:14.263Z,19.55
2019-05-30T01:47:46.418Z,19.55
2019-05-30T01:50:18.455Z,19.58
2019-05-30T01:52:50.875Z,19.59
2019-05-30T01:55:23.219Z,19.64
2019-05-30T01:57:55.389Z,19.69
2019-05-30T02:00:36.287Z,19.68
2019-05-30T02:03:09.558Z,19.69
2019-05-30T02:05:41.813Z,19.63
2019-05-30T02:08:14.031Z,19.60
2019-05-30T02:10:46.212Z,19.58
2019-05-30T02:13:18.318Z,19.52
2019-05-30T02:15:50.620Z,19.45
2019-05-30T02:18:22.865Z,19.47
2019-05-30T02:20:55.069Z,19.44
2019-05-30T02:23:27.161Z,19.37
2019-05-30T02:26:00.083Z,19.40
2019-05-30T02:28:32.731Z,19.41
2019-05-30T02:31:05.701Z,19.41
2019-05-30T02:33:38.952Z,19.44
2019-05-30T02:36:12.691Z,19.44
2019-05-30T02:38:45.043Z,19.45
2019-05-30T02:41:17.238Z,19.46
2019-05-30T02:43:49.382Z,19.44
2019-05-30T02:46:21.618Z,19.48
2019-05-30T02:48:59.301Z,19.50
2019-05-30T02:51:28.709Z,19.50
2019-05-30T02:54:01.557Z,19.51
2019-05-30T02:56:34.945Z,19.54
2019-05-30T02:59:09.253Z,19.58
2019-05-30T03:01:59.050Z,19.61
2019-05-30T03:04:15.209Z,19.68
2019-05-30T03:06:47.335Z,19.72
2019-05-30T03:09:19.590Z,19.80
2019-05-30T03:11:52.225Z,19.85
2019-05-30T03:14:24.414Z,19.88
2019-05-30T03:16:56.613Z,19.93
2019-05-30T03:19:28.633Z,19.98
2019-05-30T03:22:02.950Z,20.03
2019-05-30T03:24:34.787Z,20.10
2019-05-30T03:27:09.399Z,20.20
2019-05-30T03:29:40.926Z,20.26
2019-05-30T03:32:58.308Z,20.36
2019-05-30T03:34:46.978Z,20.42
2019-05-30T03:37:28.543Z,20.42
2019-05-30T03:39:52.775Z,20.43
2019-05-30T03:42:24.730Z,20.51
2019-05-30T03:44:56.955Z,20.62
2019-05-30T03:47:28.922Z,20.76
2019-05-30T03:50:00.961Z,20.89
2019-05-30T03:52:33.202Z,21.02
2019-05-30T03:55:07.523Z,21.10
2019-05-30T03:57:49.579Z,21.14
2019-05-30T04:00:42.954Z,21.21
2019-05-30T04:03:43.827Z,21.35
2019-05-30T04:06:27.323Z,21.49
2019-05-30T04:09:07.341Z,21.59
2019-05-30T04:11:55.175Z,21.61
2019-05-30T04:14:27.171Z,21.66
2019-05-30T04:17:08.322Z,21.82
2019-05-30T04:19:47.033Z,21.98
2019-05-30T04:22:21.343Z,22.07
2019-05-30T04:25:10.153Z,22.15
2019-05-30T04:30:47.522Z,22.43
2019-05-30T04:33:36.011Z,22.62
2019-05-30T04:36:22.065Z,22.75
2019-05-30T04:39:00.105Z,22.90
2019-05-30T04:45:13.602Z,23.25
2019-05-30T04:47:53.504Z,23.43
2019-05-30T04:50:33.945Z,23.55
2019-05-30T04:53:21.033Z,23.67
2019-05-30T04:55:59.954Z,23.86
2019-05-30T04:58:40.586Z,24.03
2019-05-30T05:11:01.277Z,24.51
2019-05-30T05:13:41.153Z,24.69
2019-05-30T05:26:29.601Z,25.11
2019-05-30T06:03:00.922Z,25.96
2019-05-30T06:05:33.171Z,26.07
2019-05-30T06:08:30.146Z,26.14
2019-05-30T06:11:24.444Z,26.22
2019-05-30T06:30:07.884Z,26.78
2019-05-30T06:32:46.262Z,26.80
2019-05-30T06:36:13.954Z,26.87
2019-05-30T06:38:52.501Z,26.98
2019-05-30T06:59:43.887Z,27.13
2019-05-30T07:02:30.631Z,27.21
2019-05-30T07:05:14.087Z,27.23
2019-05-30T07:07:57.731Z,27.33
2019-05-30T07:13:57.017Z,27.50
2019-05-30T07:16:31.436Z,27.56
2019-05-30T07:22:26.214Z,27.72
2019-05-30T07:35:25.962Z,27.93
2019-05-30T07:38:14.427Z,28.08
2019-05-30T07:50:59.417Z,28.34
2019-05-30T07:57:28.076Z,28.49
2019-05-30T08:05:35.246Z,28.69
2019-05-30T08:33:39.744Z,28.99
2019-05-30T08:36:30.854Z,29.10
2019-05-30T08:39:11.565Z,29.18
2019-05-30T08:42:00.404Z,29.23
2019-05-30T08:44:42.043Z,29.22
2019-05-30T08:50:48.467Z,29.17
2019-05-30T08:57:22.861Z,29.38
2019-05-30T08:59:55.749Z,29.47
2019-05-30T09:05:27.209Z,29.60
2019-05-30T09:08:08.718Z,29.64
2019-05-30T09:10:42.917Z,29.73
2019-05-30T09:13:19.096Z,29.82
2019-05-30T09:15:51.213Z,29.84
2019-05-30T09:18:26.451Z,29.94
2019-05-30T09:21:02.446Z,30.03
2019-05-30T09:23:39.100Z,30.01
2019-05-30T09:26:12.565Z,30.04
2019-05-30T09:28:48.348Z,30.10
2019-05-30T09:31:33.739Z,30.04
2019-05-30T09:34:06.011Z,30.12
2019-05-30T09:36:39.501Z,30.10
2019-05-30T09:39:18.675Z,29.94
2019-05-30T09:42:07.902Z,29.87
2019-05-30T09:44:47.946Z,29.95
2019-05-30T09:47:18.226Z,30.05
2019-05-30T09:49:50.989Z,30.07
2019-05-30T09:55:17.050Z,30.23
2019-05-30T09:57:52.308Z,30.28
2019-05-30T10:00:29.028Z,30.39
2019-05-30T10:03:01.332Z,30.50
2019-05-30T10:05:33.650Z,30.58
2019-05-30T10:08:05.906Z,30.67
2019-05-30T10:10:38.352Z,30.69
2019-05-30T10:13:10.598Z,30.55
2019-05-30T10:15:42.828Z,30.57
2019-05-30T10:18:15.021Z,30.65
2019-05-30T10:20:48.190Z,30.71
2019-05-30T10:23:23.379Z,30.83
2019-05-30T10:25:55.461Z,30.89
2019-05-30T10:28:29.187Z,30.86
2019-05-30T10:31:02.026Z,30.89
2019-05-30T10:33:37.027Z,30.97
2019-05-30T10:36:14.673Z,30.96
2019-05-30T10:38:49.081Z,31.08
2019-05-30T10:41:24.569Z,31.09
2019-05-30T10:43:57.314Z,31.09
2019-05-30T10:46:29.679Z,31.12
2019-05-30T10:49:01.818Z,31.18
2019-05-30T10:51:34.044Z,31.20
2019-05-30T10:54:06.079Z,31.19
2019-05-30T10:56:39.979Z,31.22
2019-05-30T10:59:12.117Z,31.25
2019-05-30T11:01:44.150Z,31.26
2019-05-30T11:04:16.285Z,31.24
2019-05-30T11:07:10.679Z,31.25
2019-05-30T11:09:37.021Z,31.30
2019-05-30T11:12:10.311Z,31.23
2019-05-30T11:14:42.503Z,31.19
2019-05-30T11:17:14.610Z,31.06
2019-05-30T11:19:47.611Z,31.14
2019-05-30T11:22:20.013Z,31.22
2019-05-30T11:24:54.437Z,31.20
2019-05-30T11:27:26.787Z,31.30
2019-05-30T11:29:59.039Z,31.29
2019-05-30T11:32:32.867Z,31.30
2019-05-30T11:35:06.543Z,31.42
2019-05-30T11:37:38.567Z,31.51
2019-05-30T11:40:10.719Z,31.52
2019-05-30T11:42:44.541Z,31.54
2019-05-30T11:45:20.661Z,31.50
2019-05-30T11:47:53.788Z,31.52
2019-05-30T11:50:27.687Z,31.32
2019-05-30T11:53:00.232Z,31.38
2019-05-30T11:55:35.621Z,31.38
2019-05-30T11:58:13.838Z,31.47
2019-05-30T12:00:47.445Z,31.51
2019-05-30T12:03:29.404Z,31.55
2019-05-30T12:06:01.387Z,31.57
2019-05-30T12:08:33.426Z,31.56
2019-05-30T12:11:05.666Z,31.53
2019-05-30T12:13:37.980Z,31.49
2019-05-30T12:16:10.333Z,31.51
2019-05-30T12:18:42.521Z,31.46
2019-05-30T12:21:14.655Z,31.45
2019-05-30T12:23:46.716Z,31.37
2019-05-30T12:26:18.808Z,31.23
2019-05-30T12:28:55.950Z,31.24
2019-05-30T12:31:28.366Z,31.12
2019-05-30T12:34:00.657Z,31.09
2019-05-30T12:36:32.778Z,31.12
2019-05-30T12:39:07.312Z,31.07
2019-05-30T12:41:45.077Z,30.99
2019-05-30T12:50:50.879Z,31.05
2019-05-30T12:53:23.388Z,31.10
2019-05-30T12:55:56.378Z,31.14
2019-05-30T12:58:28.741Z,31.15
2019-05-30T13:01:00.983Z,31.10
2019-05-30T13:03:36.394Z,31.10
2019-05-30T13:06:09.679Z,31.08
2019-05-30T13:08:42.175Z,30.97
2019-05-30T13:11:14.543Z,30.91
2019-05-30T13:13:46.671Z,30.87
2019-05-30T13:16:19.005Z,30.85
2019-05-30T13:18:51.220Z,30.81
2019-05-30T13:21:23.474Z,30.83
2019-05-30T13:23:55.618Z,30.86
2019-05-30T13:26:28.091Z,30.82
2019-05-30T13:29:00.536Z,30.88
2019-05-30T13:31:32.921Z,30.95
2019-05-30T13:34:05.082Z,30.96
2019-05-30T13:36:37.259Z,30.92
2019-05-30T13:39:09.572Z,30.93
2019-05-30T13:41:41.610Z,30.89
2019-05-30T13:44:13.964Z,30.94
2019-05-30T13:46:46.225Z,30.91
2019-05-30T13:49:18.331Z,30.91
2019-05-30T13:51:50.722Z,30.89
2019-05-30T13:54:26.017Z,30.86
2019-05-30T13:56:59.341Z,30.84
2019-05-30T13:59:31.941Z,30.82
2019-05-30T14:02:04.113Z,31.01
2019-05-30T14:04:37.329Z,31.15
2019-05-30T14:07:10.766Z,31.26
2019-05-30T14:09:43.027Z,31.25
2019-05-30T14:12:16.327Z,31.10
2019-05-30T14:14:48.594Z,30.95
2019-05-30T14:17:20.896Z,30.87
2019-05-30T14:19:53.340Z,30.84
2019-05-30T14:22:25.669Z,30.79
2019-05-30T14:24:58.024Z,30.72
2019-05-30T14:27:30.348Z,30.68
2019-05-30T14:30:03.103Z,30.67
2019-05-30T14:32:35.600Z,30.63
2019-05-30T14:35:13.341Z,30.58
2019-05-30T14:37:44.615Z,30.58
2019-05-30T14:40:16.983Z,30.56
2019-05-30T14:42:49.309Z,30.55
2019-05-30T14:45:21.529Z,30.52
2019-05-30T14:47:53.779Z,30.58
2019-05-30T14:50:26.092Z,30.62
2019-05-30T14:52:58.375Z,30.58
2019-05-30T14:55:30.655Z,30.52
2019-05-30T14:58:02.970Z,30.39
2019-05-30T15:00:35.315Z,30.33
2019-05-30T15:03:11.552Z,30.24
2019-05-30T15:05:42.106Z,30.18
2019-05-30T15:08:23.865Z,30.06
2019-05-30T15:11:03.092Z,29.94
2019-05-30T15:13:35.537Z,29.87
2019-05-30T15:16:08.794Z,29.79
2019-05-30T15:18:41.235Z,29.75
2019-05-30T15:21:14.463Z,29.74
2019-05-30T15:23:47.054Z,29.74
2019-05-30T15:26:19.408Z,29.71
2019-05-30T15:28:51.692Z,29.72
2019-05-30T15:31:23.841Z,29.72
2019-05-30T15:33:56.171Z,29.71
2019-05-30T15:36:28.200Z,29.70
2019-05-30T15:39:00.400Z,29.70
2019-05-30T15:41:32.560Z,29.60
2019-05-30T15:44:04.698Z,29.61
2019-05-30T15:46:36.959Z,29.47
2019-05-30T15:49:10.543Z,29.47
2019-05-30T15:51:42.664Z,29.53
2019-05-30T15:54:15.042Z,29.54
2019-05-30T15:56:47.549Z,29.54
2019-05-30T15:59:22.424Z,29.56
2019-05-30T16:01:55.204Z,29.64
2019-05-30T16:04:30.486Z,29.64
2019-05-30T16:07:03.903Z,29.69
2019-05-30T16:09:46.863Z,29.76
2019-05-30T16:12:10.991Z,29.75
2019-05-30T16:14:43.325Z,29.74
2019-05-30T16:17:15.842Z,29.79
2019-05-30T16:19:48.418Z,29.78
2019-05-30T16:22:20.680Z,29.72
2019-05-30T16:24:52.903Z,29.69
2019-05-30T16:27:26.075Z,29.59
2019-05-30T16:30:04.823Z,29.55
2019-05-30T16:32:40.290Z,29.53
2019-05-30T16:35:16.191Z,29.44
2019-05-30T16:41:14.068Z,29.43
2019-05-30T16:43:46.540Z,29.34
2019-05-30T16:46:22.833Z,29.25
2019-05-30T16:48:54.999Z,29.17
2019-05-30T16:58:01.592Z,28.61
2019-05-30T17:00:33.940Z,28.38
2019-05-30T17:03:06.583Z,28.25
2019-05-30T17:05:39.005Z,28.07
2019-05-30T17:08:11.342Z,27.89
2019-05-30T17:10:43.721Z,27.69
2019-05-30T17:13:15.922Z,27.50
2019-05-30T17:15:48.526Z,27.44
2019-05-30T17:18:20.851Z,27.30
2019-05-30T17:20:53.151Z,27.11
2019-05-30T17:23:26.647Z,27.01
2019-05-30T17:25:59.455Z,26.87
2019-05-30T17:28:31.739Z,26.73
2019-05-30T17:31:04.212Z,26.53
2019-05-30T17:33:36.571Z,26.39
2019-05-30T17:36:08.934Z,26.32
2019-05-30T17:38:44.424Z,26.19
2019-05-30T17:41:16.628Z,26.03
2019-05-30T17:43:48.912Z,25.94
2019-05-30T17:46:21.323Z,25.83
2019-05-30T17:48:53.548Z,25.71
2019-05-30T17:51:25.958Z,25.68
2019-05-30T17:53:58.276Z,25.53
2019-05-30T17:56:30.713Z,25.42
2019-05-30T17:59:03.134Z,25.33
2019-05-30T18:01:36.563Z,25.23
2019-05-30T18:04:09.311Z,25.15
2019-05-30T18:06:42.180Z,25.02
2019-05-30T18:09:14.763Z,24.94
2019-05-30T18:11:48.801Z,24.92
2019-05-30T18:14:21.241Z,24.90
2019-05-30T18:16:53.652Z,24.75
2019-05-30T18:19:29.663Z,24.69
2019-05-30T18:22:02.086Z,24.63
2019-05-30T18:27:35.966Z,24.51
2019-05-30T18:30:08.960Z,24.45
2019-05-30T18:32:41.695Z,24.33
2019-05-30T18:35:14.812Z,24.33
2019-05-30T18:37:47.673Z,24.27
2019-05-30T18:40:44.943Z,24.19
2019-05-30T18:47:04.370Z,24.01
